Siesta Key, Florida
Current Conditions -  °F | °C
As of 9:53 PM on Thursday 27 Nov 2014 (Local Time) from KSRQ Reporting Station
Clear Clear  
Wind Chill: 55°   Ceiling: Unl
Heat Index: 55°   Visibility: 10mi
Dew Point: 44°   Wind: 8mph
Humidity: 67%   Direction: 360°N
Pressure: 30.27"   Gusts: NA
Location:  27.2613°N, 82.5431°W
Report Text: KSRQ 280253Z 36007KT 10SM CLR 13/07 A3027 RMK AO2 SLP248 T01280067 53011
Loading
Personal Weather Stations






























Interactive Weather Map New forecast layout! Learn more

10-Day Weather Forecast

Advertisements
Track Severe Weather on mobile